sensor_id;sensor_type;location;lat;lon;timestamp;P1;durP1;ratioP1;P2;durP2;ratioP2
86043;SDS011;76640;49.832;8.748;2024-02-16T00:02:16;2.90;;;1.17;;
86043;SDS011;76640;49.832;8.748;2024-02-16T00:07:18;2.50;;;1.25;;
86043;SDS011;76640;49.832;8.748;2024-02-16T00:12:19;6.72;;;1.20;;
86043;SDS011;76640;49.832;8.748;2024-02-16T00:17:22;8.18;;;1.30;;
86043;SDS011;76640;49.832;8.748;2024-02-16T00:22:26;3.60;;;1.73;;
86043;SDS011;76640;49.832;8.748;2024-02-16T00:27:28;2.95;;;1.50;;
86043;SDS011;76640;49.832;8.748;2024-02-16T00:32:30;2.45;;;1.25;;
86043;SDS011;76640;49.832;8.748;2024-02-16T00:37:32;4.80;;;1.27;;
86043;SDS011;76640;49.832;8.748;2024-02-16T00:42:34;4.13;;;1.58;;
86043;SDS011;76640;49.832;8.748;2024-02-16T00:47:37;2.47;;;1.35;;
86043;SDS011;76640;49.832;8.748;2024-02-16T00:52:39;2.97;;;1.60;;
86043;SDS011;76640;49.832;8.748;2024-02-16T00:57:41;2.97;;;1.40;;
86043;SDS011;76640;49.832;8.748;2024-02-16T01:02:44;2.97;;;1.30;;
86043;SDS011;76640;49.832;8.748;2024-02-16T01:07:45;4.72;;;0.70;;
86043;SDS011;76640;49.832;8.748;2024-02-16T01:12:46;3.92;;;1.40;;
86043;SDS011;76640;49.832;8.748;2024-02-16T01:17:49;2.30;;;1.35;;
86043;SDS011;76640;49.832;8.748;2024-02-16T01:22:50;4.68;;;0.93;;
86043;SDS011;76640;49.832;8.748;2024-02-16T01:27:52;1.45;;;0.90;;
86043;SDS011;76640;49.832;8.748;2024-02-16T01:32:55;3.65;;;1.05;;
86043;SDS011;76640;49.832;8.748;2024-02-16T01:37:56;1.92;;;0.85;;
86043;SDS011;76640;49.832;8.748;2024-02-16T01:42:57;2.28;;;0.93;;
86043;SDS011;76640;49.832;8.748;2024-02-16T01:48:00;1.50;;;0.60;;
86043;SDS011;76640;49.832;8.748;2024-02-16T01:53:01;2.55;;;1.20;;
86043;SDS011;76640;49.832;8.748;2024-02-16T01:58:03;2.42;;;0.88;;
86043;SDS011;76640;49.832;8.748;2024-02-16T02:03:07;1.15;;;0.68;;
86043;SDS011;76640;49.832;8.748;2024-02-16T02:13:10;4.60;;;1.05;;
86043;SDS011;76640;49.832;8.748;2024-02-16T02:18:13;4.70;;;0.90;;
86043;SDS011;76640;49.832;8.748;2024-02-16T02:23:15;4.32;;;1.48;;
86043;SDS011;76640;49.832;8.748;2024-02-16T02:28:17;2.38;;;0.80;;
86043;SDS011;76640;49.832;8.748;2024-02-16T02:33:18;6.75;;;1.08;;
86043;SDS011;76640;49.832;8.748;2024-02-16T02:38:21;1.65;;;0.93;;
86043;SDS011;76640;49.832;8.748;2024-02-16T02:43:22;4.15;;;0.75;;
86043;SDS011;76640;49.832;8.748;2024-02-16T02:48:24;5.20;;;1.05;;
86043;SDS011;76640;49.832;8.748;2024-02-16T02:53:27;2.50;;;1.10;;
86043;SDS011;76640;49.832;8.748;2024-02-16T02:58:29;1.98;;;1.15;;
86043;SDS011;76640;49.832;8.748;2024-02-16T03:03:30;2.00;;;1.05;;
86043;SDS011;76640;49.832;8.748;2024-02-16T03:08:33;2.25;;;0.88;;
86043;SDS011;76640;49.832;8.748;2024-02-16T03:13:34;5.45;;;1.05;;
86043;SDS011;76640;49.832;8.748;2024-02-16T03:18:35;4.20;;;0.82;;
86043;SDS011;76640;49.832;8.748;2024-02-16T03:23:38;3.15;;;1.08;;
86043;SDS011;76640;49.832;8.748;2024-02-16T03:28:40;1.77;;;0.82;;
86043;SDS011;76640;49.832;8.748;2024-02-16T03:33:41;3.90;;;1.20;;
86043;SDS011;76640;49.832;8.748;2024-02-16T03:38:44;2.10;;;0.95;;
86043;SDS011;76640;49.832;8.748;2024-02-16T03:43:46;2.08;;;0.85;;
86043;SDS011;76640;49.832;8.748;2024-02-16T03:48:48;2.50;;;1.38;;
86043;SDS011;76640;49.832;8.748;2024-02-16T03:53:50;1.70;;;0.82;;
86043;SDS011;76640;49.832;8.748;2024-02-16T03:58:52;2.15;;;0.65;;
86043;SDS011;76640;49.832;8.748;2024-02-16T04:03:53;1.48;;;0.90;;
86043;SDS011;76640;49.832;8.748;2024-02-16T04:08:56;0.50;;;0.50;;
86043;SDS011;76640;49.832;8.748;2024-02-16T04:13:57;1.05;;;0.93;;
86043;SDS011;76640;49.832;8.748;2024-02-16T04:18:59;2.50;;;1.00;;
86043;SDS011;76640;49.832;8.748;2024-02-16T04:24:02;0.95;;;0.70;;
86043;SDS011;76640;49.832;8.748;2024-02-16T04:29:03;3.03;;;1.33;;
86043;SDS011;76640;49.832;8.748;2024-02-16T04:34:05;5.40;;;1.25;;
86043;SDS011;76640;49.832;8.748;2024-02-16T04:39:08;5.18;;;1.17;;
86043;SDS011;76640;49.832;8.748;2024-02-16T04:44:10;2.08;;;1.10;;
86043;SDS011;76640;49.832;8.748;2024-02-16T04:49:12;1.55;;;0.82;;
86043;SDS011;76640;49.832;8.748;2024-02-16T04:54:15;1.77;;;1.00;;
86043;SDS011;76640;49.832;8.748;2024-02-16T04:59:16;5.25;;;0.85;;
86043;SDS011;76640;49.832;8.748;2024-02-16T05:04:18;1.48;;;1.08;;
86043;SDS011;76640;49.832;8.748;2024-02-16T05:09:20;4.03;;;1.10;;
86043;SDS011;76640;49.832;8.748;2024-02-16T05:14:23;2.92;;;1.17;;
86043;SDS011;76640;49.832;8.748;2024-02-16T05:19:25;3.92;;;1.10;;
86043;SDS011;76640;49.832;8.748;2024-02-16T05:24:28;2.38;;;0.85;;
86043;SDS011;76640;49.832;8.748;2024-02-16T05:34:31;4.78;;;1.02;;
86043;SDS011;76640;49.832;8.748;2024-02-16T05:39:38;3.58;;;1.17;;
86043;SDS011;76640;49.832;8.748;2024-02-16T05:49:55;3.50;;;0.93;;
86043;SDS011;76640;49.832;8.748;2024-02-16T05:54:57;3.97;;;1.35;;
86043;SDS011;76640;49.832;8.748;2024-02-16T05:59:59;3.83;;;1.75;;
86043;SDS011;76640;49.832;8.748;2024-02-16T06:05:00;2.78;;;1.38;;
86043;SDS011;76640;49.832;8.748;2024-02-16T06:10:04;1.77;;;0.82;;
86043;SDS011;76640;49.832;8.748;2024-02-16T06:15:10;3.22;;;1.05;;
86043;SDS011;76640;49.832;8.748;2024-02-16T06:20:12;3.45;;;1.05;;
86043;SDS011;76640;49.832;8.748;2024-02-16T06:25:15;2.08;;;1.08;;
86043;SDS011;76640;49.832;8.748;2024-02-16T06:30:17;2.45;;;1.33;;
86043;SDS011;76640;49.832;8.748;2024-02-16T06:35:18;7.32;;;3.38;;
86043;SDS011;76640;49.832;8.748;2024-02-16T06:40:21;5.80;;;2.33;;
86043;SDS011;76640;49.832;8.748;2024-02-16T06:45:22;6.70;;;2.55;;
86043;SDS011;76640;49.832;8.748;2024-02-16T06:50:24;6.38;;;3.28;;
86043;SDS011;76640;49.832;8.748;2024-02-16T06:55:27;8.23;;;3.00;;
86043;SDS011;76640;49.832;8.748;2024-02-16T07:00:28;9.00;;;2.65;;
86043;SDS011;76640;49.832;8.748;2024-02-16T07:05:30;3.10;;;1.63;;
86043;SDS011;76640;49.832;8.748;2024-02-16T07:10:34;3.60;;;1.80;;
86043;SDS011;76640;49.832;8.748;2024-02-16T07:15:35;10.40;;;4.00;;
86043;SDS011;76640;49.832;8.748;2024-02-16T07:20:36;6.70;;;2.65;;
86043;SDS011;76640;49.832;8.748;2024-02-16T07:25:39;5.10;;;1.60;;
86043;SDS011;76640;49.832;8.748;2024-02-16T07:30:41;10.88;;;2.30;;
86043;SDS011;76640;49.832;8.748;2024-02-16T07:35:43;5.00;;;2.20;;
86043;SDS011;76640;49.832;8.748;2024-02-16T07:40:46;4.57;;;2.20;;
86043;SDS011;76640;49.832;8.748;2024-02-16T07:45:47;3.35;;;2.13;;
86043;SDS011;76640;49.832;8.748;2024-02-16T07:50:49;6.50;;;3.78;;
86043;SDS011;76640;49.832;8.748;2024-02-16T07:55:52;10.07;;;5.57;;
86043;SDS011;76640;49.832;8.748;2024-02-16T08:00:53;11.63;;;6.60;;
86043;SDS011;76640;49.832;8.748;2024-02-16T08:05:55;9.40;;;3.75;;
86043;SDS011;76640;49.832;8.748;2024-02-16T08:10:58;41.78;;;19.70;;
86043;SDS011;76640;49.832;8.748;2024-02-16T08:15:59;18.05;;;7.28;;
86043;SDS011;76640;49.832;8.748;2024-02-16T08:21:03;19.48;;;7.55;;
86043;SDS011;76640;49.832;8.748;2024-02-16T08:26:06;21.67;;;9.13;;
86043;SDS011;76640;49.832;8.748;2024-02-16T08:31:08;10.95;;;4.10;;
86043;SDS011;76640;49.832;8.748;2024-02-16T08:36:09;31.38;;;9.48;;
86043;SDS011;76640;49.832;8.748;2024-02-16T08:41:12;29.75;;;8.98;;
86043;SDS011;76640;49.832;8.748;2024-02-16T08:46:13;16.08;;;3.42;;
86043;SDS011;76640;49.832;8.748;2024-02-16T08:51:14;5.28;;;1.88;;
86043;SDS011;76640;49.832;8.748;2024-02-16T08:56:17;5.45;;;1.67;;
86043;SDS011;76640;49.832;8.748;2024-02-16T09:01:29;3.30;;;1.17;;
86043;SDS011;76640;49.832;8.748;2024-02-16T09:06:31;6.55;;;1.20;;
86043;SDS011;76640;49.832;8.748;2024-02-16T09:11:36;4.72;;;1.30;;
86043;SDS011;76640;49.832;8.748;2024-02-16T09:16:37;5.32;;;1.48;;
86043;SDS011;76640;49.832;8.748;2024-02-16T09:21:38;3.85;;;1.63;;
86043;SDS011;76640;49.832;8.748;2024-02-16T09:26:41;1.90;;;1.20;;
86043;SDS011;76640;49.832;8.748;2024-02-16T09:36:44;2.60;;;1.02;;
86043;SDS011;76640;49.832;8.748;2024-02-16T09:41:48;2.05;;;1.23;;
86043;SDS011;76640;49.832;8.748;2024-02-16T09:46:52;3.00;;;1.08;;
86043;SDS011;76640;49.832;8.748;2024-02-16T09:51:55;3.38;;;1.13;;
86043;SDS011;76640;49.832;8.748;2024-02-16T09:57:04;2.55;;;1.27;;
86043;SDS011;76640;49.832;8.748;2024-02-16T10:07:08;4.00;;;1.05;;
86043;SDS011;76640;49.832;8.748;2024-02-16T10:12:17;2.55;;;1.50;;
86043;SDS011;76640;49.832;8.748;2024-02-16T10:17:19;3.90;;;1.33;;
86043;SDS011;76640;49.832;8.748;2024-02-16T10:22:20;3.80;;;1.70;;
86043;SDS011;76640;49.832;8.748;2024-02-16T10:27:24;3.90;;;1.27;;
86043;SDS011;76640;49.832;8.748;2024-02-16T10:37:27;2.92;;;1.23;;
86043;SDS011;76640;49.832;8.748;2024-02-16T10:42:31;3.63;;;1.00;;
86043;SDS011;76640;49.832;8.748;2024-02-16T10:47:36;6.70;;;1.30;;
86043;SDS011;76640;49.832;8.748;2024-02-16T10:52:37;6.28;;;1.23;;
86043;SDS011;76640;49.832;8.748;2024-02-16T10:57:43;3.60;;;1.40;;
86043;SDS011;76640;49.832;8.748;2024-02-16T11:02:54;5.88;;;1.38;;
86043;SDS011;76640;49.832;8.748;2024-02-16T11:07:59;3.00;;;1.25;;
86043;SDS011;76640;49.832;8.748;2024-02-16T11:13:03;3.30;;;0.90;;
86043;SDS011;76640;49.832;8.748;2024-02-16T11:18:05;4.82;;;1.17;;
86043;SDS011;76640;49.832;8.748;2024-02-16T11:23:08;2.70;;;1.30;;
86043;SDS011;76640;49.832;8.748;2024-02-16T11:28:11;2.25;;;1.10;;
86043;SDS011;76640;49.832;8.748;2024-02-16T11:33:14;4.50;;;1.40;;
86043;SDS011;76640;49.832;8.748;2024-02-16T11:38:15;2.97;;;1.10;;
86043;SDS011;76640;49.832;8.748;2024-02-16T11:43:21;3.53;;;1.20;;
86043;SDS011;76640;49.832;8.748;2024-02-16T11:48:23;4.20;;;1.52;;
86043;SDS011;76640;49.832;8.748;2024-02-16T11:53:26;2.40;;;1.42;;
86043;SDS011;76640;49.832;8.748;2024-02-16T11:58:29;3.50;;;2.05;;
86043;SDS011;76640;49.832;8.748;2024-02-16T12:03:31;6.43;;;2.30;;
86043;SDS011;76640;49.832;8.748;2024-02-16T12:08:33;4.07;;;1.13;;
86043;SDS011;76640;49.832;8.748;2024-02-16T12:13:36;6.63;;;1.88;;
86043;SDS011;76640;49.832;8.748;2024-02-16T12:23:39;6.63;;;1.73;;
86043;SDS011;76640;49.832;8.748;2024-02-16T12:28:42;8.10;;;1.35;;
86043;SDS011;76640;49.832;8.748;2024-02-16T12:35:20;3.78;;;1.67;;
86043;SDS011;76640;49.832;8.748;2024-02-16T12:40:21;7.65;;;1.83;;
86043;SDS011;76640;49.832;8.748;2024-02-16T12:45:54;4.45;;;1.52;;
86043;SDS011;76640;49.832;8.748;2024-02-16T12:50:56;9.57;;;2.00;;
86043;SDS011;76640;49.832;8.748;2024-02-16T12:55:58;6.15;;;1.35;;
86043;SDS011;76640;49.832;8.748;2024-02-16T13:01:00;4.43;;;1.08;;
86043;SDS011;76640;49.832;8.748;2024-02-16T13:08:50;5.38;;;1.33;;
86043;SDS011;76640;49.832;8.748;2024-02-16T13:13:52;2.20;;;1.13;;
86043;SDS011;76640;49.832;8.748;2024-02-16T13:18:53;6.78;;;1.05;;
86043;SDS011;76640;49.832;8.748;2024-02-16T13:23:56;5.03;;;1.42;;
86043;SDS011;76640;49.832;8.748;2024-02-16T13:28:57;3.50;;;1.25;;
86043;SDS011;76640;49.832;8.748;2024-02-16T13:33:59;4.57;;;1.33;;
86043;SDS011;76640;49.832;8.748;2024-02-16T13:39:02;3.53;;;1.15;;
86043;SDS011;76640;49.832;8.748;2024-02-16T13:44:03;4.85;;;1.33;;
86043;SDS011;76640;49.832;8.748;2024-02-16T13:49:05;4.45;;;1.40;;
86043;SDS011;76640;49.832;8.748;2024-02-16T13:54:08;4.55;;;1.45;;
86043;SDS011;76640;49.832;8.748;2024-02-16T13:59:09;7.57;;;1.33;;
86043;SDS011;76640;49.832;8.748;2024-02-16T14:04:11;5.72;;;1.75;;
86043;SDS011;76640;49.832;8.748;2024-02-16T14:09:14;3.60;;;0.93;;
86043;SDS011;76640;49.832;8.748;2024-02-16T14:14:16;6.07;;;1.17;;
86043;SDS011;76640;49.832;8.748;2024-02-16T14:19:17;5.97;;;1.48;;
86043;SDS011;76640;49.832;8.748;2024-02-16T14:24:20;2.53;;;1.15;;
86043;SDS011;76640;49.832;8.748;2024-02-16T14:29:21;4.15;;;1.20;;
86043;SDS011;76640;49.832;8.748;2024-02-16T14:34:23;3.13;;;1.23;;
86043;SDS011;76640;49.832;8.748;2024-02-16T14:39:26;3.95;;;1.10;;
86043;SDS011;76640;49.832;8.748;2024-02-16T14:52:33;4.05;;;1.58;;
86043;SDS011;76640;49.832;8.748;2024-02-16T14:57:35;3.60;;;1.10;;
86043;SDS011;76640;49.832;8.748;2024-02-16T15:02:37;5.80;;;1.92;;
86043;SDS011;76640;49.832;8.748;2024-02-16T15:07:40;3.10;;;1.40;;
86043;SDS011;76640;49.832;8.748;2024-02-16T15:17:43;4.10;;;1.10;;
86043;SDS011;76640;49.832;8.748;2024-02-16T15:22:45;4.25;;;1.27;;
86043;SDS011;76640;49.832;8.748;2024-02-16T15:27:47;3.75;;;1.17;;
86043;SDS011;76640;49.832;8.748;2024-02-16T15:32:48;4.28;;;1.25;;
86043;SDS011;76640;49.832;8.748;2024-02-16T15:37:51;7.88;;;1.10;;
86043;SDS011;76640;49.832;8.748;2024-02-16T15:42:59;4.63;;;0.52;;
86043;SDS011;76640;49.832;8.748;2024-02-16T15:48:01;2.38;;;1.10;;
86043;SDS011;76640;49.832;8.748;2024-02-16T15:53:04;4.03;;;1.17;;
86043;SDS011;76640;49.832;8.748;2024-02-16T15:58:06;5.45;;;1.38;;
86043;SDS011;76640;49.832;8.748;2024-02-16T16:03:07;3.10;;;1.73;;
86043;SDS011;76640;49.832;8.748;2024-02-16T16:08:11;3.45;;;1.63;;
86043;SDS011;76640;49.832;8.748;2024-02-16T16:13:12;4.15;;;1.55;;
86043;SDS011;76640;49.832;8.748;2024-02-16T16:18:13;3.17;;;1.30;;
86043;SDS011;76640;49.832;8.748;2024-02-16T16:23:17;6.43;;;1.75;;
86043;SDS011;76640;49.832;8.748;2024-02-16T16:28:19;7.80;;;2.13;;
86043;SDS011;76640;49.832;8.748;2024-02-16T16:33:20;4.28;;;2.08;;
86043;SDS011;76640;49.832;8.748;2024-02-16T16:38:23;6.75;;;1.75;;
86043;SDS011;76640;49.832;8.748;2024-02-16T16:43:24;2.95;;;1.42;;
86043;SDS011;76640;49.832;8.748;2024-02-16T16:48:25;2.30;;;1.27;;
86043;SDS011;76640;49.832;8.748;2024-02-16T16:53:28;6.70;;;1.95;;
86043;SDS011;76640;49.832;8.748;2024-02-16T16:58:30;7.60;;;2.55;;
86043;SDS011;76640;49.832;8.748;2024-02-16T17:03:31;6.97;;;2.03;;
86043;SDS011;76640;49.832;8.748;2024-02-16T17:08:34;7.78;;;1.80;;
86043;SDS011;76640;49.832;8.748;2024-02-16T17:13:35;6.05;;;2.35;;
86043;SDS011;76640;49.832;8.748;2024-02-16T17:18:36;5.10;;;2.20;;
86043;SDS011;76640;49.832;8.748;2024-02-16T17:23:39;7.43;;;2.30;;
86043;SDS011;76640;49.832;8.748;2024-02-16T17:33:42;8.18;;;2.88;;
86043;SDS011;76640;49.832;8.748;2024-02-16T17:38:45;4.63;;;2.65;;
86043;SDS011;76640;49.832;8.748;2024-02-16T17:48:48;8.10;;;3.15;;
86043;SDS011;76640;49.832;8.748;2024-02-16T17:53:51;4.03;;;2.47;;
86043;SDS011;76640;49.832;8.748;2024-02-16T18:03:54;4.72;;;2.38;;
86043;SDS011;76640;49.832;8.748;2024-02-16T18:08:56;5.95;;;2.85;;
86043;SDS011;76640;49.832;8.748;2024-02-16T18:13:58;6.90;;;2.97;;
86043;SDS011;76640;49.832;8.748;2024-02-16T18:18:59;3.63;;;2.38;;
86043;SDS011;76640;49.832;8.748;2024-02-16T18:24:02;6.40;;;3.35;;
86043;SDS011;76640;49.832;8.748;2024-02-16T18:29:03;6.53;;;3.53;;
86043;SDS011;76640;49.832;8.748;2024-02-16T18:34:05;7.95;;;3.97;;
86043;SDS011;76640;49.832;8.748;2024-02-16T18:39:08;5.07;;;2.83;;
86043;SDS011;76640;49.832;8.748;2024-02-16T18:44:12;7.03;;;3.38;;
86043;SDS011;76640;49.832;8.748;2024-02-16T18:49:13;7.32;;;3.50;;
86043;SDS011;76640;49.832;8.748;2024-02-16T18:54:16;6.72;;;3.22;;
86043;SDS011;76640;49.832;8.748;2024-02-16T18:59:18;5.50;;;2.70;;
86043;SDS011;76640;49.832;8.748;2024-02-16T19:04:19;4.47;;;2.83;;
86043;SDS011;76640;49.832;8.748;2024-02-16T19:09:22;6.30;;;2.65;;
86043;SDS011;76640;49.832;8.748;2024-02-16T19:14:23;6.20;;;3.45;;
86043;SDS011;76640;49.832;8.748;2024-02-16T19:19:25;5.43;;;2.17;;
86043;SDS011;76640;49.832;8.748;2024-02-16T19:24:29;3.67;;;2.47;;
86043;SDS011;76640;49.832;8.748;2024-02-16T19:29:30;4.60;;;2.55;;
86043;SDS011;76640;49.832;8.748;2024-02-16T19:34:32;4.43;;;2.63;;
86043;SDS011;76640;49.832;8.748;2024-02-16T19:39:35;10.55;;;3.15;;
86043;SDS011;76640;49.832;8.748;2024-02-16T19:44:37;7.15;;;2.75;;
86043;SDS011;76640;49.832;8.748;2024-02-16T19:49:38;6.03;;;2.50;;
86043;SDS011;76640;49.832;8.748;2024-02-16T19:54:41;4.82;;;2.53;;
86043;SDS011;76640;49.832;8.748;2024-02-16T19:59:42;5.82;;;2.47;;
86043;SDS011;76640;49.832;8.748;2024-02-16T20:04:43;3.78;;;2.70;;
86043;SDS011;76640;49.832;8.748;2024-02-16T20:09:46;3.97;;;2.22;;
86043;SDS011;76640;49.832;8.748;2024-02-16T20:14:48;8.32;;;3.40;;
86043;SDS011;76640;49.832;8.748;2024-02-16T20:19:49;13.77;;;6.93;;
86043;SDS011;76640;49.832;8.748;2024-02-16T20:24:52;11.38;;;3.83;;
86043;SDS011;76640;49.832;8.748;2024-02-16T20:29:53;6.65;;;3.72;;
86043;SDS011;76640;49.832;8.748;2024-02-16T20:34:55;3.25;;;2.67;;
86043;SDS011;76640;49.832;8.748;2024-02-16T20:39:57;4.25;;;2.63;;
86043;SDS011;76640;49.832;8.748;2024-02-16T20:44:59;7.20;;;2.25;;
86043;SDS011;76640;49.832;8.748;2024-02-16T20:50:00;3.35;;;2.55;;
86043;SDS011;76640;49.832;8.748;2024-02-16T20:55:05;4.43;;;3.10;;
86043;SDS011;76640;49.832;8.748;2024-02-16T21:00:08;3.33;;;2.45;;
86043;SDS011;76640;49.832;8.748;2024-02-16T21:05:11;5.47;;;2.40;;
86043;SDS011;76640;49.832;8.748;2024-02-16T21:10:14;4.22;;;2.42;;
86043;SDS011;76640;49.832;8.748;2024-02-16T21:15:15;3.70;;;1.88;;
86043;SDS011;76640;49.832;8.748;2024-02-16T21:20:17;6.10;;;2.20;;
86043;SDS011;76640;49.832;8.748;2024-02-16T21:25:20;2.42;;;1.48;;
86043;SDS011;76640;49.832;8.748;2024-02-16T21:30:21;4.32;;;2.40;;
86043;SDS011;76640;49.832;8.748;2024-02-16T21:35:22;4.45;;;2.47;;
86043;SDS011;76640;49.832;8.748;2024-02-16T21:40:29;6.00;;;2.40;;
86043;SDS011;76640;49.832;8.748;2024-02-16T21:45:33;3.92;;;2.42;;
86043;SDS011;76640;49.832;8.748;2024-02-16T21:50:35;5.15;;;2.58;;
86043;SDS011;76640;49.832;8.748;2024-02-16T21:55:37;6.05;;;2.80;;
86043;SDS011;76640;49.832;8.748;2024-02-16T22:00:39;5.03;;;2.88;;
86043;SDS011;76640;49.832;8.748;2024-02-16T22:05:40;5.22;;;2.90;;
86043;SDS011;76640;49.832;8.748;2024-02-16T22:10:43;4.10;;;3.00;;
86043;SDS011;76640;49.832;8.748;2024-02-16T22:15:45;5.95;;;3.05;;
86043;SDS011;76640;49.832;8.748;2024-02-16T22:25:51;3.83;;;2.45;;
86043;SDS011;76640;49.832;8.748;2024-02-16T22:30:53;6.90;;;3.83;;
86043;SDS011;76640;49.832;8.748;2024-02-16T22:35:55;7.55;;;4.05;;
86043;SDS011;76640;49.832;8.748;2024-02-16T22:40:58;5.40;;;3.38;;
86043;SDS011;76640;49.832;8.748;2024-02-16T22:45:59;3.80;;;3.03;;
86043;SDS011;76640;49.832;8.748;2024-02-16T22:51:01;6.50;;;3.42;;
86043;SDS011;76640;49.832;8.748;2024-02-16T22:56:05;4.72;;;3.03;;
86043;SDS011;76640;49.832;8.748;2024-02-16T23:01:07;5.90;;;3.50;;
86043;SDS011;76640;49.832;8.748;2024-02-16T23:06:11;5.60;;;3.47;;
86043;SDS011;76640;49.832;8.748;2024-02-16T23:11:16;5.97;;;3.83;;
86043;SDS011;76640;49.832;8.748;2024-02-16T23:16:18;9.20;;;4.15;;
86043;SDS011;76640;49.832;8.748;2024-02-16T23:21:20;6.60;;;4.47;;
86043;SDS011;76640;49.832;8.748;2024-02-16T23:26:23;7.82;;;4.88;;
86043;SDS011;76640;49.832;8.748;2024-02-16T23:31:24;9.50;;;4.30;;
86043;SDS011;76640;49.832;8.748;2024-02-16T23:36:26;9.10;;;4.45;;
86043;SDS011;76640;49.832;8.748;2024-02-16T23:41:28;6.60;;;4.18;;
86043;SDS011;76640;49.832;8.748;2024-02-16T23:46:30;7.03;;;4.25;;
86043;SDS011;76640;49.832;8.748;2024-02-16T23:51:34;10.32;;;5.60;;
86043;SDS011;76640;49.832;8.748;2024-02-16T23:56:37;8.60;;;4.15;;
